createdAt,value
2019-05-05T00:03:28.687Z,4.30
2019-05-05T00:07:32.099Z,5.10
2019-05-05T00:11:44.458Z,3.83
2019-05-05T00:16:05.575Z,3.53
2019-05-05T00:20:10.059Z,3.90
2019-05-05T00:24:15.049Z,3.60
2019-05-05T00:28:18.975Z,3.50
2019-05-05T00:32:24.343Z,3.83
2019-05-05T00:36:29.132Z,4.40
2019-05-05T00:40:32.126Z,3.50
2019-05-05T00:44:35.344Z,4.80
2019-05-05T00:48:40.407Z,4.20
2019-05-05T00:52:44.555Z,4.80
2019-05-05T00:56:47.823Z,5.70
2019-05-05T01:00:54.768Z,5.23
2019-05-05T01:05:04.534Z,4.57
2019-05-05T01:09:09.518Z,4.53
2019-05-05T01:13:12.555Z,4.47
2019-05-05T01:17:17.433Z,4.03
2019-05-05T01:21:21.103Z,4.97
2019-05-05T01:25:25.347Z,4.70
2019-05-05T01:29:28.649Z,5.73
2019-05-05T01:33:46.624Z,4.03
2019-05-05T01:37:51.695Z,4.73
2019-05-05T01:42:00.819Z,6.03
2019-05-05T01:46:05.040Z,4.20
2019-05-05T01:50:20.435Z,4.17
2019-05-05T01:54:14.470Z,3.63
2019-05-05T01:58:18.404Z,4.50
2019-05-05T02:02:21.432Z,4.67
2019-05-05T02:06:24.819Z,4.53
2019-05-05T02:10:28.012Z,5.37
2019-05-05T02:14:31.165Z,4.70
2019-05-05T02:18:34.692Z,4.83
2019-05-05T02:22:39.953Z,6.63
2019-05-05T02:26:43.071Z,4.10
2019-05-05T02:30:55.028Z,4.23
2019-05-05T02:35:00.230Z,4.13
2019-05-05T02:39:07.055Z,3.50
2019-05-05T02:43:10.263Z,3.60
2019-05-05T02:47:26.253Z,4.20
2019-05-05T02:51:30.353Z,5.63
2019-05-05T02:55:34.810Z,4.40
2019-05-05T02:59:40.126Z,4.20
2019-05-05T03:03:43.834Z,4.17
2019-05-05T03:07:47.037Z,4.30
2019-05-05T03:11:54.129Z,4.50
2019-05-05T03:16:10.384Z,4.80
2019-05-05T03:20:14.548Z,4.57
2019-05-05T03:24:19.564Z,4.07
2019-05-05T03:28:24.076Z,4.13
2019-05-05T03:32:27.425Z,4.70
2019-05-05T03:36:33.930Z,4.30
2019-05-05T03:40:38.854Z,4.00
2019-05-05T03:44:44.091Z,4.23
2019-05-05T03:48:47.315Z,4.37
2019-05-05T03:52:50.456Z,4.67
2019-05-05T03:57:08.862Z,3.80
2019-05-05T04:01:18.785Z,4.23
2019-05-05T04:05:23.876Z,4.40
2019-05-05T04:09:26.890Z,4.47
2019-05-05T04:13:30.003Z,4.00
2019-05-05T04:17:40.553Z,4.20
2019-05-05T04:21:44.894Z,4.70
2019-05-05T04:25:49.121Z,4.27
2019-05-05T04:29:54.321Z,4.30
2019-05-05T04:33:57.134Z,4.63
2019-05-05T04:38:00.130Z,3.80
2019-05-05T04:42:04.797Z,3.77
2019-05-05T04:46:08.059Z,3.87
2019-05-05T04:51:43.463Z,3.90
2019-05-05T04:55:35.972Z,5.07
2019-05-05T04:59:38.988Z,4.43
2019-05-05T05:03:43.971Z,4.83
2019-05-05T05:07:47.076Z,3.83
2019-05-05T05:11:50.304Z,3.10
2019-05-05T05:15:54.106Z,3.53
2019-05-05T05:19:57.128Z,3.97
2019-05-05T05:24:00.147Z,4.10
2019-05-05T05:28:04.150Z,4.20
2019-05-05T05:32:07.516Z,4.60
2019-05-05T05:36:10.541Z,4.70
2019-05-05T05:40:24.840Z,4.03
2019-05-05T05:44:44.628Z,4.10
2019-05-05T05:49:06.008Z,3.90
2019-05-05T05:53:09.967Z,4.00
2019-05-05T05:57:13.616Z,4.63
2019-05-05T06:01:16.900Z,5.27
2019-05-05T06:05:19.960Z,5.47
2019-05-05T06:09:23.798Z,5.33
2019-05-05T06:13:26.994Z,5.07
2019-05-05T06:17:30.005Z,5.53
2019-05-05T06:21:33.746Z,4.93
2019-05-05T06:25:38.160Z,6.53
2019-05-05T06:29:43.630Z,6.53
2019-05-05T06:33:46.279Z,5.63
2019-05-05T06:37:54.247Z,5.97
2019-05-05T06:41:59.220Z,5.67
2019-05-05T06:46:04.432Z,6.40
2019-05-05T06:50:07.881Z,7.03
2019-05-05T06:54:13.627Z,7.00
2019-05-05T06:58:18.630Z,6.53
2019-05-05T07:02:23.773Z,8.33
2019-05-05T07:06:28.269Z,8.60
2019-05-05T07:10:33.726Z,7.13
2019-05-05T07:14:36.721Z,5.60
2019-05-05T07:18:39.859Z,4.17
2019-05-05T07:22:58.452Z,4.40
2019-05-05T07:26:47.792Z,4.33
2019-05-05T07:30:50.901Z,5.07
2019-05-05T07:35:03.942Z,4.80
2019-05-05T07:39:06.918Z,4.20
2019-05-05T07:43:10.043Z,4.90
2019-05-05T07:47:15.005Z,4.03
2019-05-05T07:51:18.276Z,6.10
2019-05-05T07:55:23.821Z,5.80
2019-05-05T07:59:26.882Z,4.27
2019-05-05T08:03:29.886Z,4.00
2019-05-05T08:07:34.046Z,3.87
2019-05-05T08:11:37.134Z,2.93
2019-05-05T08:15:56.002Z,2.60
2019-05-05T08:19:51.736Z,2.83
2019-05-05T08:23:56.832Z,2.93
2019-05-05T08:28:10.924Z,1.47
2019-05-05T08:32:18.364Z,2.30
2019-05-05T08:36:23.448Z,1.93
2019-05-05T08:40:26.295Z,2.33
2019-05-05T08:44:29.370Z,1.77
2019-05-05T08:48:34.158Z,2.90
2019-05-05T08:52:37.429Z,2.00
2019-05-05T08:56:41.447Z,1.60
2019-05-05T09:00:44.636Z,1.80
2019-05-05T09:04:47.668Z,1.20
2019-05-05T09:08:50.701Z,2.00
2019-05-05T09:12:54.344Z,1.93
2019-05-05T09:16:57.569Z,3.90
2019-05-05T09:21:01.655Z,2.50
2019-05-05T09:25:06.989Z,1.70
2019-05-05T09:29:30.092Z,1.40
2019-05-05T09:33:33.912Z,1.87
2019-05-05T09:37:37.621Z,1.60
2019-05-05T09:41:40.793Z,1.70
2019-05-05T09:45:44.276Z,1.60
2019-05-05T09:49:47.436Z,1.77
2019-05-05T09:53:50.483Z,1.50
2019-05-05T09:57:54.042Z,1.50
2019-05-05T10:01:57.108Z,1.50
2019-05-05T10:06:00.262Z,2.70
2019-05-05T10:10:04.622Z,2.63
2019-05-05T10:14:08.059Z,2.47
2019-05-05T10:18:11.181Z,1.47
2019-05-05T10:22:14.772Z,3.23
2019-05-05T10:26:18.171Z,3.00
2019-05-05T10:30:21.174Z,1.40
2019-05-05T10:34:24.336Z,2.57
2019-05-05T10:38:27.512Z,5.00
2019-05-05T10:42:44.852Z,13.47
2019-05-05T10:46:47.943Z,6.50
2019-05-05T10:50:50.997Z,7.03
2019-05-05T10:54:55.189Z,12.73
2019-05-05T10:58:58.999Z,8.40
2019-05-05T11:03:04.010Z,6.30
2019-05-05T11:07:07.172Z,2.87
2019-05-05T11:11:10.423Z,3.77
2019-05-05T11:15:14.313Z,2.93
2019-05-05T11:19:17.564Z,2.10
2019-05-05T11:23:20.854Z,2.00
2019-05-05T11:27:24.195Z,1.50
2019-05-05T11:31:27.586Z,1.60
2019-05-05T11:35:48.952Z,1.50
2019-05-05T11:39:53.670Z,1.70
2019-05-05T11:43:56.977Z,1.50
2019-05-05T11:48:00.153Z,2.17
2019-05-05T11:52:04.622Z,1.50
2019-05-05T11:56:07.780Z,0.97
2019-05-05T12:00:13.987Z,1.50
2019-05-05T12:04:17.256Z,2.20
2019-05-05T12:08:20.320Z,1.60
2019-05-05T12:12:23.564Z,2.10
2019-05-05T12:16:30.111Z,1.90
2019-05-05T12:20:35.142Z,1.93
2019-05-05T12:24:40.058Z,2.00
2019-05-05T12:28:47.462Z,2.03
2019-05-05T12:32:50.468Z,2.10
2019-05-05T12:36:54.101Z,1.77
2019-05-05T12:40:57.394Z,2.50
2019-05-05T12:45:04.208Z,2.77
2019-05-05T12:49:09.232Z,1.90
2019-05-05T12:53:14.415Z,2.77
2019-05-05T12:57:17.148Z,2.57
2019-05-05T13:01:24.567Z,3.13
2019-05-05T13:05:27.773Z,2.10
2019-05-05T13:09:30.778Z,2.53
2019-05-05T13:13:34.579Z,2.20
2019-05-05T13:17:37.838Z,2.10
2019-05-05T13:21:44.215Z,2.70
2019-05-05T13:26:05.425Z,2.20
2019-05-05T13:30:08.956Z,1.97
2019-05-05T13:34:13.663Z,2.07
2019-05-05T13:38:16.892Z,1.83
2019-05-05T13:42:19.898Z,4.83
2019-05-05T13:46:27.910Z,3.43
2019-05-05T13:50:35.603Z,2.97
2019-05-05T13:54:38.621Z,2.40
2019-05-05T13:58:43.604Z,2.60
2019-05-05T14:02:47.024Z,2.60
2019-05-05T14:06:50.067Z,1.70
2019-05-05T14:10:54.038Z,2.30
2019-05-05T14:14:57.202Z,1.80
2019-05-05T14:19:00.257Z,2.90
2019-05-05T14:23:03.957Z,2.23
2019-05-05T14:27:07.091Z,1.67
2019-05-05T14:31:13.949Z,2.20
2019-05-05T14:35:31.255Z,2.00
2019-05-05T14:39:34.542Z,2.37
2019-05-05T14:43:37.785Z,2.60
2019-05-05T14:47:40.902Z,1.83
2019-05-05T14:51:44.661Z,2.47
2019-05-05T14:55:47.886Z,2.40
2019-05-05T14:59:50.966Z,2.03
2019-05-05T15:03:55.852Z,2.30
2019-05-05T15:08:00.765Z,2.40
2019-05-05T15:12:17.371Z,2.10
2019-05-05T15:16:20.472Z,2.70
2019-05-05T15:20:24.460Z,3.07
2019-05-05T15:24:27.788Z,2.90
2019-05-05T15:28:30.791Z,2.20
2019-05-05T15:32:34.398Z,3.70
2019-05-05T15:36:37.656Z,2.30
2019-05-05T15:40:40.692Z,2.30
2019-05-05T15:44:44.049Z,2.47
2019-05-05T15:48:47.231Z,2.77
2019-05-05T15:52:50.246Z,2.80
2019-05-05T15:57:04.824Z,2.80
2019-05-05T16:00:58.219Z,2.30
2019-05-05T16:05:04.781Z,2.40
2019-05-05T16:09:07.802Z,2.80
2019-05-05T16:13:10.916Z,2.90
2019-05-05T16:17:21.380Z,2.47
2019-05-05T16:21:41.104Z,2.83
2019-05-05T16:25:46.573Z,3.00
2019-05-05T16:29:49.244Z,2.03
2019-05-05T16:33:52.285Z,3.47
2019-05-05T16:37:55.389Z,2.80
2019-05-05T16:41:58.409Z,2.20
2019-05-05T16:46:01.424Z,2.37
2019-05-05T16:50:06.131Z,2.30
2019-05-05T16:54:11.244Z,2.50
2019-05-05T16:58:14.452Z,2.77
2019-05-05T17:02:17.620Z,2.30
2019-05-05T17:06:20.873Z,2.50
2019-05-05T17:10:24.484Z,2.47
2019-05-05T17:14:29.553Z,3.80
2019-05-05T17:18:40.039Z,2.23
2019-05-05T17:22:44.947Z,2.37
2019-05-05T17:26:48.030Z,2.40
2019-05-05T17:30:51.108Z,3.40
2019-05-05T17:34:54.284Z,8.97
2019-05-05T17:38:57.496Z,5.40
2019-05-05T17:43:02.410Z,2.70
2019-05-05T17:47:07.443Z,2.40
2019-05-05T17:51:15.323Z,2.47
2019-05-05T17:55:28.905Z,3.67
2019-05-05T17:59:33.705Z,2.07
2019-05-05T18:03:37.096Z,1.93
2019-05-05T18:07:44.080Z,2.30
2019-05-05T18:12:04.400Z,2.07
2019-05-05T18:16:07.448Z,1.83
2019-05-05T18:20:10.567Z,2.17
2019-05-05T18:24:13.804Z,2.10
2019-05-05T18:28:20.132Z,2.60
2019-05-05T18:32:23.539Z,2.00
2019-05-05T18:36:26.872Z,2.40
2019-05-05T18:40:29.892Z,2.50
2019-05-05T18:44:37.745Z,2.37
2019-05-05T18:48:42.830Z,2.40
2019-05-05T18:52:47.288Z,2.20
2019-05-05T18:56:50.537Z,2.40
2019-05-05T19:00:55.566Z,2.90
2019-05-05T19:05:12.800Z,2.67
2019-05-05T19:09:21.555Z,2.87
2019-05-05T19:13:24.673Z,2.87
2019-05-05T19:17:28.792Z,2.70
2019-05-05T19:21:35.754Z,2.33
2019-05-05T19:25:38.939Z,3.00
2019-05-05T19:29:44.194Z,2.20
2019-05-05T19:33:47.143Z,3.57
2019-05-05T19:37:50.189Z,2.97
2019-05-05T19:41:54.315Z,4.07
2019-05-05T19:45:57.784Z,3.13
2019-05-05T19:50:02.727Z,3.40
2019-05-05T19:54:07.845Z,3.77
2019-05-05T19:58:10.864Z,3.70
2019-05-05T20:02:14.069Z,2.70
2019-05-05T20:06:17.164Z,2.53
2019-05-05T20:10:21.086Z,3.40
2019-05-05T20:14:24.816Z,7.03
2019-05-05T20:18:28.208Z,5.47
2019-05-05T20:22:31.352Z,8.20
2019-05-05T20:26:34.755Z,7.00
2019-05-05T20:30:37.912Z,4.50
2019-05-05T20:34:42.832Z,3.40
2019-05-05T20:38:47.906Z,3.50
2019-05-05T20:42:51.131Z,3.57
2019-05-05T20:46:54.308Z,4.13
2019-05-05T20:50:57.367Z,3.40
2019-05-05T20:55:00.430Z,3.27
2019-05-05T20:59:03.689Z,3.73
2019-05-05T21:03:06.723Z,4.13
2019-05-05T21:07:09.930Z,3.80
2019-05-05T21:11:14.597Z,3.77
2019-05-05T21:15:17.786Z,4.17
2019-05-05T21:19:20.957Z,3.53
2019-05-05T21:23:26.309Z,3.30
2019-05-05T21:27:29.509Z,3.40
2019-05-05T21:31:34.523Z,3.80
2019-05-05T21:35:37.441Z,4.03
2019-05-05T21:39:40.547Z,3.50
2019-05-05T21:43:44.881Z,4.40
2019-05-05T21:47:48.057Z,3.87
2019-05-05T21:51:55.778Z,3.90
2019-05-05T21:56:00.804Z,4.53
2019-05-05T22:00:06.724Z,3.50
2019-05-05T22:04:12.501Z,4.43
2019-05-05T22:08:14.643Z,3.70
2019-05-05T22:12:18.268Z,4.30
2019-05-05T22:16:21.556Z,4.00
2019-05-05T22:20:26.473Z,3.93
2019-05-05T22:24:29.486Z,3.97
2019-05-05T22:28:34.028Z,4.47
2019-05-05T22:32:37.450Z,4.00
2019-05-05T22:36:40.455Z,4.40
2019-05-05T22:40:44.048Z,3.70
2019-05-05T22:44:48.155Z,3.40
2019-05-05T22:48:51.346Z,4.23
2019-05-05T22:52:54.658Z,4.00
2019-05-05T22:56:57.900Z,3.90
2019-05-05T23:01:00.911Z,4.30
2019-05-05T23:05:23.992Z,4.17
2019-05-05T23:09:27.297Z,4.50
2019-05-05T23:13:33.607Z,4.20
2019-05-05T23:17:38.353Z,3.93
2019-05-05T23:21:46.114Z,5.20
2019-05-05T23:25:54.472Z,4.40
2019-05-05T23:29:57.712Z,5.37
2019-05-05T23:34:00.759Z,5.47
2019-05-05T23:38:03.759Z,4.40
2019-05-05T23:42:06.956Z,4.60
2019-05-05T23:46:10.016Z,4.20
2019-05-05T23:50:13.487Z,5.10
2019-05-05T23:54:16.677Z,4.37
2019-05-05T23:58:19.687Z,4.93
